Time;durP1;ratioP1;P1;durP2;ratioP2;P2;SDS_P1;SDS_P2;PMS_P1;PMS_P2;Temp;Humidity;BMP_temperature;BMP_pressure;BME280_temperature;BME280_humidity;BME280_pressure;Samples;Min_cycle;Max_cycle;Signal;HPM_P1;HPM_P2
2022/04/19 00:00:37;;;;;;;3.15;1.55;;;;;;;;;;4992532;28;20026;-80
2022/04/19 00:03:04;;;;;;;4.55;1.58;;;;;;;;;;5007519;28;20118;-81
2022/04/19 00:05:30;;;;;;;3.00;1.80;;;;;;;;;;5027945;28;20057;-81
2022/04/19 00:07:56;;;;;;;4.57;1.90;;;;;;;;;;5011860;28;20069;-81
2022/04/19 00:10:21;;;;;;;2.92;1.55;;;;;;;;;;5011542;28;20555;-81
2022/04/19 00:12:47;;;;;;;3.20;1.80;;;;;;;;;;5011472;28;20092;-81
2022/04/19 00:15:15;;;;;;;2.83;1.83;;;;;;;;;;4995322;28;20038;-81
2022/04/19 00:17:41;;;;;;;2.60;1.38;;;;;;;;;;4995562;28;20038;-81
2022/04/19 00:20:07;;;;;;;3.47;1.70;;;;;;;;;;4995128;28;20446;-82
2022/04/19 00:22:33;;;;;;;2.65;1.60;;;;;;;;;;4995415;28;20038;-81
2022/04/19 00:24:59;;;;;;;2.85;1.50;;;;;;;;;;4978927;28;20116;-81
2022/04/19 00:27:25;;;;;;;2.80;1.73;;;;;;;;;;4995748;28;20045;-81
2022/04/19 00:29:50;;;;;;;3.45;1.77;;;;;;;;;;5011301;28;20116;-81
2022/04/19 00:32:16;;;;;;;3.00;1.58;;;;;;;;;;4978566;28;20377;-81
2022/04/19 00:34:41;;;;;;;3.30;1.75;;;;;;;;;;5010809;28;20040;-81
2022/04/19 00:37:07;;;;;;;2.65;1.63;;;;;;;;;;5027480;28;20050;-81
2022/04/19 00:39:33;;;;;;;3.33;1.67;;;;;;;;;;5024387;28;20397;-81
2022/04/19 00:42:00;;;;;;;3.75;1.88;;;;;;;;;;4991746;28;20092;-81
2022/04/19 00:44:25;;;;;;;2.45;1.30;;;;;;;;;;4991782;28;20045;-81
2022/04/19 00:46:50;;;;;;;3.42;1.65;;;;;;;;;;4991539;28;20129;-81
2022/04/19 00:49:17;;;;;;;3.53;1.80;;;;;;;;;;4990623;28;20416;-81
2022/04/19 00:51:44;;;;;;;3.22;2.00;;;;;;;;;;4991361;28;20039;-81
2022/04/19 00:54:09;;;;;;;2.42;1.33;;;;;;;;;;4991339;28;20041;-81
2022/04/19 00:56:36;;;;;;;1.98;1.20;;;;;;;;;;4991238;28;20042;-81
2022/04/19 00:59:02;;;;;;;3.30;1.27;;;;;;;;;;4991258;28;20088;-81
2022/04/19 01:01:27;;;;;;;2.60;1.30;;;;;;;;;;4994165;28;20117;-81
2022/04/19 01:03:53;;;;;;;3.50;1.30;;;;;;;;;;5027010;28;20037;-81
2022/04/19 01:06:18;;;;;;;2.70;1.65;;;;;;;;;;5010780;28;20046;-81
2022/04/19 01:08:44;;;;;;;2.83;1.42;;;;;;;;;;5010729;28;20124;-81
2022/04/19 01:13:54;;;;;;;3.42;1.90;;;;;;;;;;5024873;28;20061;-81
2022/04/19 01:16:19;;;;;;;2.17;1.35;;;;;;;;;;5027408;28;20085;-81
2022/04/19 01:18:45;;;;;;;2.15;1.15;;;;;;;;;;5010255;28;20072;-80
2022/04/19 01:21:11;;;;;;;2.80;1.50;;;;;;;;;;5010676;28;20042;-81
2022/04/19 01:23:38;;;;;;;2.53;1.30;;;;;;;;;;5010879;28;20026;-81
2022/04/19 01:26:04;;;;;;;3.40;1.35;;;;;;;;;;5010695;28;20128;-81
2022/04/19 01:28:32;;;;;;;2.75;1.20;;;;;;;;;;4994435;28;20507;-81
2022/04/19 01:30:58;;;;;;;3.22;1.67;;;;;;;;;;5012155;28;20507;-81
2022/04/19 01:33:23;;;;;;;2.85;1.40;;;;;;;;;;5028828;28;20026;-81
2022/04/19 01:35:49;;;;;;;2.60;1.45;;;;;;;;;;5030746;28;20101;-82
2022/04/19 01:38:14;;;;;;;2.40;1.30;;;;;;;;;;4998302;28;20566;-81
2022/04/19 01:40:40;;;;;;;2.47;1.27;;;;;;;;;;5027433;28;20065;-81
2022/04/19 01:43:06;;;;;;;3.05;1.55;;;;;;;;;;5011329;28;20033;-81
2022/04/19 01:45:32;;;;;;;2.88;1.30;;;;;;;;;;4994761;28;20441;-82
2022/04/19 01:47:58;;;;;;;4.63;1.92;;;;;;;;;;4994179;28;20026;-81
2022/04/19 01:50:26;;;;;;;2.83;1.60;;;;;;;;;;4994580;28;20046;-81
2022/04/19 01:52:53;;;;;;;2.40;1.23;;;;;;;;;;4994764;28;20105;-82
2022/04/19 01:55:19;;;;;;;4.00;1.63;;;;;;;;;;4994599;28;20053;-81
2022/04/19 01:57:45;;;;;;;3.22;1.50;;;;;;;;;;4994803;28;20038;-81
2022/04/19 02:00:12;;;;;;;2.67;1.70;;;;;;;;;;4994337;28;20093;-81
2022/04/19 02:02:37;;;;;;;2.70;1.45;;;;;;;;;;5006026;28;20453;-81
2022/04/19 02:05:04;;;;;;;2.45;1.40;;;;;;;;;;5014209;28;20038;-81
2022/04/19 02:07:29;;;;;;;2.72;1.73;;;;;;;;;;5014205;28;20083;-81
2022/04/19 02:09:55;;;;;;;2.75;1.40;;;;;;;;;;5013842;28;20492;-82
2022/04/19 02:12:23;;;;;;;3.10;1.70;;;;;;;;;;5013896;28;20496;-81
2022/04/19 02:14:49;;;;;;;2.30;1.35;;;;;;;;;;4981575;28;20492;-82
2022/04/19 02:17:15;;;;;;;3.42;1.55;;;;;;;;;;4980969;28;20126;-81
2022/04/19 02:19:40;;;;;;;3.20;1.70;;;;;;;;;;4981466;28;20068;-81
2022/04/19 02:22:06;;;;;;;2.55;1.33;;;;;;;;;;4997553;28;20116;-81
2022/04/19 02:24:34;;;;;;;3.17;1.63;;;;;;;;;;4981336;28;20034;-81
2022/04/19 02:27:00;;;;;;;3.13;1.50;;;;;;;;;;5013640;28;20197;-81
2022/04/19 02:29:26;;;;;;;3.28;1.25;;;;;;;;;;5013941;28;20041;-81
2022/04/19 02:31:52;;;;;;;3.05;1.60;;;;;;;;;;4980850;28;20050;-81
2022/04/19 02:34:18;;;;;;;2.95;1.33;;;;;;;;;;5005434;28;20041;-80
2022/04/19 02:36:44;;;;;;;2.10;1.20;;;;;;;;;;5029882;28;20034;-80
2022/04/19 02:39:10;;;;;;;3.17;1.40;;;;;;;;;;4997338;28;20037;-80
2022/04/19 02:41:36;;;;;;;2.75;1.80;;;;;;;;;;4981331;28;20452;-80
2022/04/19 02:44:03;;;;;;;2.55;1.50;;;;;;;;;;4980952;28;20079;-80
2022/04/19 02:46:29;;;;;;;2.92;1.50;;;;;;;;;;4980526;28;20124;-80
2022/04/19 02:48:57;;;;;;;2.65;1.30;;;;;;;;;;4980872;28;20507;-80
2022/04/19 02:51:23;;;;;;;3.40;1.58;;;;;;;;;;4997159;28;20038;-80
2022/04/19 02:53:48;;;;;;;2.25;1.40;;;;;;;;;;4980955;28;20034;-80
2022/04/19 02:56:14;;;;;;;5.78;1.70;;;;;;;;;;4980517;28;20447;-81
2022/04/19 02:58:39;;;;;;;2.80;1.55;;;;;;;;;;4980426;28;20037;-80
2022/04/19 03:01:05;;;;;;;3.78;1.77;;;;;;;;;;4980323;28;20030;-80
2022/04/19 03:03:30;;;;;;;3.10;1.40;;;;;;;;;;4980164;28;20060;-80
2022/04/19 03:05:57;;;;;;;2.83;1.70;;;;;;;;;;5013058;28;20030;-80
2022/04/19 03:08:24;;;;;;;2.63;1.52;;;;;;;;;;5030009;28;20034;-81
2022/04/19 03:10:51;;;;;;;2.85;1.60;;;;;;;;;;5029304;28;20125;-80
2022/04/19 03:13:16;;;;;;;2.30;1.20;;;;;;;;;;5013108;28;20097;-80
2022/04/19 03:15:42;;;;;;;2.90;1.45;;;;;;;;;;4996768;28;20567;-80
2022/04/19 03:18:08;;;;;;;4.07;1.60;;;;;;;;;;5012548;28;20042;-80
2022/04/19 03:20:33;;;;;;;2.47;1.48;;;;;;;;;;4980186;28;20539;-80
2022/04/19 03:28:37;;;;;;;2.15;1.48;;;;;;;;;;5012200;28;20041;-80
2022/04/19 03:31:02;;;;;;;2.95;1.25;;;;;;;;;;4995894;28;20046;-80
2022/04/19 03:33:27;;;;;;;2.40;1.10;;;;;;;;;;4995699;28;20108;-80
2022/04/19 03:35:56;;;;;;;2.55;1.50;;;;;;;;;;5028903;28;20108;-80
2022/04/19 03:38:22;;;;;;;2.45;1.50;;;;;;;;;;5028836;28;20088;-80
2022/04/19 03:40:48;;;;;;;2.72;1.70;;;;;;;;;;5025220;28;20033;-80
2022/04/19 03:43:14;;;;;;;2.40;1.27;;;;;;;;;;5008640;28;20041;-81
2022/04/19 03:45:39;;;;;;;2.13;1.40;;;;;;;;;;4992560;28;20046;-80
2022/04/19 03:48:05;;;;;;;2.65;1.40;;;;;;;;;;4992178;28;20406;-81
2022/04/19 03:50:32;;;;;;;1.95;1.17;;;;;;;;;;4992755;28;20038;-80
2022/04/19 03:52:57;;;;;;;2.30;1.35;;;;;;;;;;4992175;28;20447;-80
2022/04/19 03:55:25;;;;;;;2.65;1.55;;;;;;;;;;4992161;28;20034;-80
2022/04/19 03:57:51;;;;;;;3.35;1.80;;;;;;;;;;4992213;28;20042;-80
2022/04/19 04:00:16;;;;;;;2.33;1.10;;;;;;;;;;4992168;28;20030;-80
2022/04/19 04:02:42;;;;;;;2.95;1.40;;;;;;;;;;5004482;28;20459;-80
2022/04/19 04:05:07;;;;;;;2.63;1.40;;;;;;;;;;5028391;28;20034;-80
2022/04/19 04:07:37;;;;;;;2.63;1.42;;;;;;;;;;5011584;28;20049;-80
2022/04/19 04:10:02;;;;;;;3.58;1.60;;;;;;;;;;4979432;28;20030;-80
2022/04/19 04:12:28;;;;;;;2.60;1.20;;;;;;;;;;4995351;28;20037;-80
2022/04/19 04:14:53;;;;;;;2.80;1.10;;;;;;;;;;5011667;28;20073;-80
2022/04/19 04:17:19;;;;;;;2.42;1.20;;;;;;;;;;5011355;28;20417;-80
2022/04/19 04:19:45;;;;;;;2.17;1.20;;;;;;;;;;5028214;28;20034;-80
2022/04/19 04:22:10;;;;;;;1.73;1.02;;;;;;;;;;4995200;28;20393;-80
2022/04/19 04:24:36;;;;;;;2.55;1.30;;;;;;;;;;4995305;28;20452;-80
2022/04/19 04:27:02;;;;;;;2.03;1.17;;;;;;;;;;5011267;28;20455;-80
2022/04/19 04:29:27;;;;;;;3.00;1.33;;;;;;;;;;5011600;28;20029;-81
2022/04/19 04:31:53;;;;;;;2.17;1.20;;;;;;;;;;4995095;28;20041;-80
2022/04/19 04:34:18;;;;;;;2.50;1.08;;;;;;;;;;4994714;28;20492;-80
2022/04/19 04:36:44;;;;;;;3.63;1.65;;;;;;;;;;4995209;28;20057;-81
2022/04/19 04:39:09;;;;;;;1.80;1.00;;;;;;;;;;5011642;28;20104;-80
2022/04/19 04:41:35;;;;;;;2.65;1.40;;;;;;;;;;4995067;28;20038;-80
2022/04/19 04:44:00;;;;;;;2.25;1.20;;;;;;;;;;4979089;28;20040;-80
2022/04/19 04:51:54;;;;;;;3.40;1.38;;;;;;;;;;4999753;28;20084;-80
2022/04/19 04:54:20;;;;;;;1.88;1.10;;;;;;;;;;4979303;28;20447;-80
2022/04/19 04:56:45;;;;;;;3.15;1.45;;;;;;;;;;4994592;28;20030;-80
2022/04/19 04:59:11;;;;;;;3.63;1.30;;;;;;;;;;5010993;28;20176;-81
2022/04/19 05:01:36;;;;;;;1.98;0.98;;;;;;;;;;4974904;28;20034;-79
2022/04/19 05:04:01;;;;;;;3.40;1.38;;;;;;;;;;5023613;28;20408;-80
2022/04/19 05:06:27;;;;;;;2.80;1.15;;;;;;;;;;5004681;28;20689;-79
2022/04/19 05:08:52;;;;;;;5.57;1.73;;;;;;;;;;4988684;28;20117;-79
2022/04/19 05:11:18;;;;;;;2.97;1.40;;;;;;;;;;5022410;28;20472;-79
2022/04/19 05:13:43;;;;;;;5.10;1.33;;;;;;;;;;5007873;28;20460;-81
2022/04/19 05:16:09;;;;;;;4.03;1.77;;;;;;;;;;5007345;28;20034;-82
2022/04/19 05:18:34;;;;;;;7.22;1.83;;;;;;;;;;4993010;28;20069;-81
2022/04/19 05:21:00;;;;;;;5.40;1.88;;;;;;;;;;4994568;28;20058;-78
2022/04/19 05:23:25;;;;;;;5.90;1.45;;;;;;;;;;4978491;28;20037;-78
2022/04/19 05:25:51;;;;;;;6.38;1.63;;;;;;;;;;4977721;28;20037;-79
2022/04/19 05:28:16;;;;;;;3.72;1.73;;;;;;;;;;4977892;28;20095;-78
2022/04/19 05:30:41;;;;;;;3.53;1.50;;;;;;;;;;4993817;28;20046;-79
2022/04/19 05:33:07;;;;;;;5.25;2.25;;;;;;;;;;4993594;28;20484;-78
2022/04/19 05:35:32;;;;;;;9.95;1.92;;;;;;;;;;5026959;28;20042;-78
2022/04/19 05:37:59;;;;;;;4.78;1.40;;;;;;;;;;5010669;28;20049;-78
2022/04/19 05:40:25;;;;;;;5.50;1.40;;;;;;;;;;5023451;28;20042;-78
2022/04/19 05:42:51;;;;;;;7.32;2.30;;;;;;;;;;4990837;28;20038;-78
2022/04/19 05:45:16;;;;;;;12.05;2.53;;;;;;;;;;4990982;28;20096;-78
2022/04/19 05:47:43;;;;;;;7.57;2.17;;;;;;;;;;4990538;28;20038;-78
2022/04/19 05:50:09;;;;;;;9.23;2.67;;;;;;;;;;5007263;28;20053;-78
2022/04/19 05:52:34;;;;;;;5.75;1.92;;;;;;;;;;5007151;28;20034;-78
2022/04/19 05:54:59;;;;;;;5.32;1.65;;;;;;;;;;4990602;28;20057;-78
2022/04/19 05:57:25;;;;;;;5.43;1.58;;;;;;;;;;4990784;28;20039;-78
2022/04/19 05:59:50;;;;;;;5.32;2.38;;;;;;;;;;4990811;28;20406;-78
2022/04/19 06:05:00;;;;;;;6.70;2.00;;;;;;;;;;5029499;28;20042;-78
2022/04/19 06:07:27;;;;;;;7.95;2.20;;;;;;;;;;4994486;28;20117;-78
2022/04/19 06:09:53;;;;;;;6.18;2.60;;;;;;;;;;5010000;28;20063;-78
2022/04/19 06:12:18;;;;;;;6.78;2.05;;;;;;;;;;5026451;28;20492;-78
2022/04/19 06:14:44;;;;;;;7.30;1.60;;;;;;;;;;5010217;28;20496;-78
2022/04/19 06:17:16;;;;;;;5.00;1.95;;;;;;;;;;4995672;28;20056;-77
2022/04/19 06:19:42;;;;;;;4.78;2.13;;;;;;;;;;5013822;28;20038;-77
2022/04/19 06:22:08;;;;;;;5.13;2.13;;;;;;;;;;5013348;28;20037;-77
2022/04/19 06:24:34;;;;;;;7.43;1.70;;;;;;;;;;5012527;28;20394;-77
2022/04/19 06:26:59;;;;;;;7.43;2.35;;;;;;;;;;5013003;28;20048;-77
2022/04/19 06:29:25;;;;;;;7.68;2.40;;;;;;;;;;5012312;28;20077;-77
2022/04/19 06:31:50;;;;;;;6.45;2.47;;;;;;;;;;5027441;28;20088;-77
2022/04/19 06:34:19;;;;;;;4.97;1.88;;;;;;;;;;4996235;28;20454;-77
2022/04/19 06:36:44;;;;;;;8.90;2.10;;;;;;;;;;5012235;28;20508;-77
2022/04/19 06:39:09;;;;;;;5.20;2.45;;;;;;;;;;5012033;28;20067;-77
2022/04/19 06:41:36;;;;;;;6.82;1.77;;;;;;;;;;4980119;28;20034;-77
2022/04/19 06:44:02;;;;;;;5.22;2.35;;;;;;;;;;5010999;28;20037;-77
2022/04/19 06:46:27;;;;;;;8.48;2.13;;;;;;;;;;4995782;28;20026;-77
2022/04/19 06:48:56;;;;;;;11.90;2.95;;;;;;;;;;4995821;28;20045;-77
2022/04/19 06:51:22;;;;;;;5.22;1.98;;;;;;;;;;4996500;28;20038;-77
2022/04/19 06:53:48;;;;;;;9.70;2.60;;;;;;;;;;4963918;28;20041;-77
2022/04/19 06:56:14;;;;;;;7.50;2.58;;;;;;;;;;5012799;28;20088;-78
2022/04/19 06:58:39;;;;;;;11.15;3.03;;;;;;;;;;4980047;28;20432;-76
2022/04/19 07:01:07;;;;;;;6.63;2.50;;;;;;;;;;4995824;28;20029;-77
2022/04/19 07:03:33;;;;;;;6.03;2.20;;;;;;;;;;4995763;28;20092;-77
2022/04/19 07:05:59;;;;;;;7.57;2.80;;;;;;;;;;5012152;28;20041;-77
2022/04/19 07:08:24;;;;;;;6.80;2.03;;;;;;;;;;5028261;28;20069;-78
2022/04/19 07:10:50;;;;;;;7.70;2.42;;;;;;;;;;5011423;28;20547;-77
2022/04/19 07:13:15;;;;;;;7.05;2.33;;;;;;;;;;4995589;28;20038;-77
2022/04/19 07:15:41;;;;;;;6.28;2.38;;;;;;;;;;5011827;28;20034;-77
2022/04/19 07:18:06;;;;;;;8.32;3.15;;;;;;;;;;5011934;28;20049;-77
2022/04/19 07:28:44;;;;;;;6.43;3.00;;;;;;;;;;5011395;28;20041;-76
2022/04/19 07:31:10;;;;;;;6.50;2.70;;;;;;;;;;5011633;28;20581;-76
2022/04/19 07:33:39;;;;;;;7.05;2.50;;;;;;;;;;5008095;28;20030;-77
2022/04/19 07:36:06;;;;;;;6.85;2.75;;;;;;;;;;4975453;28;20173;-77
2022/04/19 07:38:31;;;;;;;7.43;2.95;;;;;;;;;;4992346;28;20038;-77
2022/04/19 07:40:57;;;;;;;8.23;3.50;;;;;;;;;;5024140;28;20379;-76
2022/04/19 07:43:23;;;;;;;5.57;2.72;;;;;;;;;;5008227;28;20442;-76
2022/04/19 07:45:48;;;;;;;8.57;3.67;;;;;;;;;;5007856;28;20118;-76
2022/04/19 07:48:15;;;;;;;11.88;3.92;;;;;;;;;;5006882;28;20066;-77
2022/04/19 07:50:40;;;;;;;8.23;3.30;;;;;;;;;;5024063;28;20038;-76
2022/04/19 07:53:06;;;;;;;5.93;3.40;;;;;;;;;;5024500;28;20079;-77
2022/04/19 07:55:31;;;;;;;8.93;3.72;;;;;;;;;;5007658;28;20038;-78
2022/04/19 07:57:57;;;;;;;5.80;3.75;;;;;;;;;;5008099;28;20031;-78
2022/04/19 08:00:27;;;;;;;6.53;3.45;;;;;;;;;;5024483;28;20145;-77
2022/04/19 08:02:52;;;;;;;6.68;3.50;;;;;;;;;;5010829;28;20040;-77
2022/04/19 08:05:18;;;;;;;6.35;3.72;;;;;;;;;;5027171;28;20034;-78
2022/04/19 08:07:43;;;;;;;11.73;4.38;;;;;;;;;;4994664;28;20069;-77
2022/04/19 08:10:09;;;;;;;9.43;3.80;;;;;;;;;;5011098;28;20029;-76
2022/04/19 08:12:34;;;;;;;9.23;3.85;;;;;;;;;;4978651;28;20392;-76
2022/04/19 08:15:00;;;;;;;8.73;3.50;;;;;;;;;;5010682;28;20467;-76
2022/04/19 08:17:26;;;;;;;6.95;4.68;;;;;;;;;;5009295;28;20034;-76
2022/04/19 08:19:51;;;;;;;8.60;5.60;;;;;;;;;;5009369;28;20046;-76
2022/04/19 08:22:16;;;;;;;8.63;6.07;;;;;;;;;;4993893;28;20026;-76
2022/04/19 08:24:42;;;;;;;10.55;5.03;;;;;;;;;;4993996;28;20121;-76
2022/04/19 08:27:08;;;;;;;8.20;4.05;;;;;;;;;;5027000;28;20042;-76
2022/04/19 08:29:33;;;;;;;7.45;3.47;;;;;;;;;;4978218;28;20038;-76
2022/04/19 08:31:59;;;;;;;6.32;3.25;;;;;;;;;;5010620;28;20034;-76
2022/04/19 08:34:24;;;;;;;8.27;3.60;;;;;;;;;;4993798;28;20045;-76
2022/04/19 08:36:50;;;;;;;8.93;4.35;;;;;;;;;;5010768;28;20038;-76
2022/04/19 08:39:15;;;;;;;12.20;3.47;;;;;;;;;;5011242;28;20118;-76
2022/04/19 08:41:41;;;;;;;8.18;3.20;;;;;;;;;;5011305;28;20036;-76
2022/04/19 08:44:06;;;;;;;5.88;3.70;;;;;;;;;;4995189;28;20047;-76
2022/04/19 08:46:32;;;;;;;8.25;3.58;;;;;;;;;;4978307;28;20055;-76
2022/04/19 08:49:02;;;;;;;7.05;3.90;;;;;;;;;;5010527;28;20045;-76
2022/04/19 08:51:28;;;;;;;5.60;3.50;;;;;;;;;;4995252;28;20026;-76
2022/04/19 08:59:32;;;;;;;7.65;3.20;;;;;;;;;;4997211;28;20118;-76
2022/04/19 09:01:58;;;;;;;6.05;3.30;;;;;;;;;;4994173;28;20639;-76
2022/04/19 09:04:24;;;;;;;7.47;3.20;;;;;;;;;;5027232;28;20065;-76
2022/04/19 09:06:56;;;;;;;6.80;3.15;;;;;;;;;;5010960;28;20088;-76
2022/04/19 09:09:25;;;;;;;5.95;3.63;;;;;;;;;;5026942;28;20049;-76
2022/04/19 09:11:51;;;;;;;7.43;3.25;;;;;;;;;;5026746;28;20041;-76
2022/04/19 09:14:17;;;;;;;6.93;3.53;;;;;;;;;;5027212;28;20378;-76
2022/04/19 09:16:45;;;;;;;5.78;3.10;;;;;;;;;;5027206;28;20109;-76
2022/04/19 09:19:19;;;;;;;7.55;3.00;;;;;;;;;;5042893;28;20507;-76
2022/04/19 09:21:44;;;;;;;5.63;3.83;;;;;;;;;;5026907;28;20038;-76
2022/04/19 09:24:17;;;;;;;5.85;3.65;;;;;;;;;;5027206;28;20048;-76
2022/04/19 09:26:43;;;;;;;5.68;3.97;;;;;;;;;;5027269;28;20041;-76
2022/04/19 09:29:17;;;;;;;8.23;3.42;;;;;;;;;;5010908;28;20069;-76
2022/04/19 09:31:42;;;;;;;7.15;3.45;;;;;;;;;;5026433;28;20112;-76
2022/04/19 09:34:08;;;;;;;6.50;3.45;;;;;;;;;;5010160;28;20061;-76
2022/04/19 09:36:33;;;;;;;5.45;3.00;;;;;;;;;;5010671;28;20049;-76
2022/04/19 09:38:59;;;;;;;7.05;3.40;;;;;;;;;;5010335;28;20032;-76
2022/04/19 09:41:31;;;;;;;6.45;3.88;;;;;;;;;;4977577;28;20057;-76
2022/04/19 09:44:15;;;;;;;6.90;3.63;;;;;;;;;;5027000;28;20096;-76
2022/04/19 09:47:06;;;;;;;5.72;3.88;;;;;;;;;;5025575;28;20390;-76
2022/04/19 09:49:45;;;;;;;6.32;3.70;;;;;;;;;;5025900;28;20088;-76
2022/04/19 09:52:15;;;;;;;7.00;4.10;;;;;;;;;;5045795;28;20045;-76
2022/04/19 09:54:44;;;;;;;6.07;3.72;;;;;;;;;;5014151;28;20038;-76
2022/04/19 09:57:09;;;;;;;4.05;2.75;;;;;;;;;;5030404;28;20048;-76
2022/04/19 09:59:53;;;;;;;5.55;3.72;;;;;;;;;;5014090;28;20034;-76
2022/04/19 10:10:31;;;;;;;8.13;4.47;;;;;;;;;;5014058;28;20472;-76
2022/04/19 10:12:56;;;;;;;6.85;4.40;;;;;;;;;;5013763;28;20116;-76
2022/04/19 10:15:22;;;;;;;7.03;4.05;;;;;;;;;;5013494;28;20507;-76
2022/04/19 10:17:48;;;;;;;8.02;3.75;;;;;;;;;;5029847;28;20061;-76
2022/04/19 10:20:14;;;;;;;7.10;3.55;;;;;;;;;;4981232;28;20041;-76
2022/04/19 10:22:46;;;;;;;6.97;3.63;;;;;;;;;;4997667;28;20111;-76
2022/04/19 10:25:13;;;;;;;7.05;4.80;;;;;;;;;;4997592;28;20042;-76
2022/04/19 10:27:38;;;;;;;6.75;4.55;;;;;;;;;;4997474;28;20042;-76
2022/04/19 10:30:05;;;;;;;9.20;6.95;;;;;;;;;;4997420;28;20164;-76
2022/04/19 10:32:33;;;;;;;7.75;5.15;;;;;;;;;;5013373;28;20073;-76
2022/04/19 10:35:00;;;;;;;8.15;5.63;;;;;;;;;;4998093;28;20362;-76
2022/04/19 10:37:26;;;;;;;6.10;4.47;;;;;;;;;;5013390;28;20401;-76
2022/04/19 10:40:14;;;;;;;5.93;4.78;;;;;;;;;;5030268;28;20033;-76
2022/04/19 10:42:40;;;;;;;5.82;4.00;;;;;;;;;;5013814;28;20507;-76
2022/04/19 10:45:13;;;;;;;6.72;4.15;;;;;;;;;;4996965;28;20116;-76
2022/04/19 10:47:54;;;;;;;7.10;3.97;;;;;;;;;;5014477;28;20058;-76
2022/04/19 10:50:29;;;;;;;6.65;3.28;;;;;;;;;;5014555;28;20038;-76
2022/04/19 10:52:58;;;;;;;5.15;2.72;;;;;;;;;;5014478;28;20034;-76
2022/04/19 10:55:25;;;;;;;6.85;3.58;;;;;;;;;;4997231;28;20038;-76
2022/04/19 10:58:06;;;;;;;4.38;2.72;;;;;;;;;;4996348;28;20038;-76
2022/04/19 11:00:34;;;;;;;3.70;2.40;;;;;;;;;;5013275;28;20029;-76
2022/04/19 11:03:01;;;;;;;4.70;2.20;;;;;;;;;;5011414;28;20379;-76
2022/04/19 11:05:48;;;;;;;3.38;1.77;;;;;;;;;;5012751;28;20026;-76
2022/04/19 11:08:26;;;;;;;5.35;2.67;;;;;;;;;;5044894;28;20034;-76
2022/04/19 11:11:04;;;;;;;4.63;2.50;;;;;;;;;;5013983;28;20117;-76
2022/04/19 11:13:39;;;;;;;4.38;2.15;;;;;;;;;;5045524;28;20035;-76
2022/04/19 11:16:13;;;;;;;5.07;2.33;;;;;;;;;;4980278;28;20045;-76
2022/04/19 11:18:41;;;;;;;3.75;2.15;;;;;;;;;;5016618;28;20050;-77
2022/04/19 11:21:13;;;;;;;4.38;2.38;;;;;;;;;;5013712;28;20129;-76
2022/04/19 11:23:46;;;;;;;4.30;2.00;;;;;;;;;;4981235;28;20037;-76
2022/04/19 11:26:26;;;;;;;3.78;2.15;;;;;;;;;;4995698;28;20044;-76
2022/04/19 11:29:10;;;;;;;3.50;1.73;;;;;;;;;;4995742;28;20420;-76
2022/04/19 11:31:44;;;;;;;3.35;1.77;;;;;;;;;;5013616;28;20158;-76
2022/04/19 11:34:10;;;;;;;3.05;1.27;;;;;;;;;;5011913;28;20030;-76
2022/04/19 11:36:36;;;;;;;2.58;1.25;;;;;;;;;;5029029;28;20034;-76
2022/04/19 11:39:02;;;;;;;3.72;1.83;;;;;;;;;;5012740;28;20116;-76
2022/04/19 11:46:56;;;;;;;2.80;1.10;;;;;;;;;;5011469;28;20386;-76
2022/04/19 11:49:22;;;;;;;3.13;1.30;;;;;;;;;;5012397;28;20045;-76
2022/04/19 11:51:49;;;;;;;3.47;1.17;;;;;;;;;;5012201;28;20041;-76
2022/04/19 11:54:28;;;;;;;3.03;1.42;;;;;;;;;;4996150;28;20034;-76
2022/04/19 11:57:04;;;;;;;2.05;1.05;;;;;;;;;;4996836;28;20042;-76
2022/04/19 11:59:37;;;;;;;2.58;1.00;;;;;;;;;;4996734;28;20065;-76
2022/04/19 12:02:04;;;;;;;2.85;1.08;;;;;;;;;;4980134;28;20030;-76
2022/04/19 12:04:30;;;;;;;3.00;1.20;;;;;;;;;;5012034;28;20520;-76
2022/04/19 12:07:01;;;;;;;3.65;1.50;;;;;;;;;;5011732;28;20037;-76
2022/04/19 12:09:28;;;;;;;2.42;1.00;;;;;;;;;;5012093;28;20037;-76
2022/04/19 12:11:53;;;;;;;2.90;1.15;;;;;;;;;;4995364;28;20041;-76
2022/04/19 12:14:29;;;;;;;2.05;0.90;;;;;;;;;;5011833;28;20038;-76
2022/04/19 12:16:59;;;;;;;2.63;1.23;;;;;;;;;;4995335;28;20448;-76
2022/04/19 12:19:35;;;;;;;2.70;1.25;;;;;;;;;;4995860;28;20503;-77
2022/04/19 12:22:00;;;;;;;2.20;1.10;;;;;;;;;;5011878;28;20100;-77
2022/04/19 12:24:28;;;;;;;3.28;1.20;;;;;;;;;;5012037;28;20493;-76
2022/04/19 12:27:06;;;;;;;2.47;1.13;;;;;;;;;;4978925;28;20103;-76
2022/04/19 12:29:36;;;;;;;1.83;0.82;;;;;;;;;;4995503;28;20092;-76
2022/04/19 12:32:02;;;;;;;2.05;0.95;;;;;;;;;;5011572;28;20025;-76
2022/04/19 12:34:35;;;;;;;1.83;1.00;;;;;;;;;;5011170;28;20492;-76
2022/04/19 12:37:14;;;;;;;2.15;0.80;;;;;;;;;;5011690;28;20532;-76
2022/04/19 12:39:40;;;;;;;1.77;0.90;;;;;;;;;;4996064;28;20480;-76
2022/04/19 12:42:07;;;;;;;3.05;1.00;;;;;;;;;;4978948;28;20109;-76
2022/04/19 12:44:34;;;;;;;2.65;1.40;;;;;;;;;;4979062;28;20033;-76
2022/04/19 12:47:04;;;;;;;2.83;1.55;;;;;;;;;;4994934;28;20503;-77
2022/04/19 12:49:30;;;;;;;3.63;1.77;;;;;;;;;;4995435;28;20046;-76
2022/04/19 12:51:58;;;;;;;2.70;1.30;;;;;;;;;;4978605;28;20041;-76
2022/04/19 12:54:32;;;;;;;2.67;1.10;;;;;;;;;;4994616;28;20058;-76
2022/04/19 12:57:00;;;;;;;3.80;1.17;;;;;;;;;;4994658;28;20508;-76
2022/04/19 12:59:26;;;;;;;2.35;1.00;;;;;;;;;;5011432;28;20113;-76
2022/04/19 13:01:51;;;;;;;3.20;1.02;;;;;;;;;;5010988;28;20109;-76
2022/04/19 13:04:17;;;;;;;3.05;1.67;;;;;;;;;;5027401;28;20136;-76
2022/04/19 13:12:26;;;;;;;2.90;0.88;;;;;;;;;;5024981;28;20077;-76
2022/04/19 13:15:03;;;;;;;3.22;1.40;;;;;;;;;;5010472;28;20045;-76
2022/04/19 13:17:34;;;;;;;1.40;0.82;;;;;;;;;;5026763;28;20072;-76
2022/04/19 13:20:00;;;;;;;2.75;1.30;;;;;;;;;;5026842;28;20045;-76
2022/04/19 13:22:25;;;;;;;2.17;0.90;;;;;;;;;;5011010;28;20030;-76
2022/04/19 13:24:51;;;;;;;2.33;0.98;;;;;;;;;;5010082;28;20038;-76
2022/04/19 13:27:17;;;;;;;3.28;1.45;;;;;;;;;;5026317;28;20038;-76
2022/04/19 13:29:42;;;;;;;3.42;1.65;;;;;;;;;;5026985;28;20404;-76
2022/04/19 13:32:08;;;;;;;2.72;1.20;;;;;;;;;;5026921;28;20034;-76
2022/04/19 13:34:34;;;;;;;2.13;1.00;;;;;;;;;;5027048;28;20468;-76
2022/04/19 13:37:00;;;;;;;2.30;1.05;;;;;;;;;;5027184;28;20057;-76
2022/04/19 13:39:25;;;;;;;3.58;1.45;;;;;;;;;;5010628;28;20046;-76
2022/04/19 13:41:51;;;;;;;2.67;1.63;;;;;;;;;;4978357;28;20070;-76
2022/04/19 13:44:17;;;;;;;3.40;1.25;;;;;;;;;;5010716;28;20061;-76
2022/04/19 13:46:44;;;;;;;2.88;1.23;;;;;;;;;;5010686;28;20030;-76
2022/04/19 13:49:10;;;;;;;2.28;1.20;;;;;;;;;;4993967;28;20049;-76
2022/04/19 13:51:39;;;;;;;4.28;1.20;;;;;;;;;;5010127;28;20496;-77
2022/04/19 13:54:05;;;;;;;2.67;1.10;;;;;;;;;;4979227;28;20038;-76
2022/04/19 13:56:30;;;;;;;1.70;1.05;;;;;;;;;;4993991;28;20049;-76
2022/04/19 13:58:56;;;;;;;1.45;0.80;;;;;;;;;;5010158;28;20499;-76
2022/04/19 14:01:22;;;;;;;2.25;1.02;;;;;;;;;;4977564;28;20078;-76
2022/04/19 14:03:48;;;;;;;1.77;0.90;;;;;;;;;;5009874;28;20038;-76
2022/04/19 14:06:14;;;;;;;1.92;1.10;;;;;;;;;;5042897;28;20091;-76
2022/04/19 14:08:39;;;;;;;2.38;1.08;;;;;;;;;;5010353;28;20562;-76
2022/04/19 14:11:05;;;;;;;2.45;1.23;;;;;;;;;;5011424;28;20030;-76
2022/04/19 14:13:32;;;;;;;1.65;0.90;;;;;;;;;;5042816;28;20038;-76
2022/04/19 14:15:58;;;;;;;2.30;0.88;;;;;;;;;;5026915;28;20038;-76
2022/04/19 14:18:23;;;;;;;1.98;0.80;;;;;;;;;;5043068;28;20054;-76
2022/04/19 14:20:49;;;;;;;1.75;1.15;;;;;;;;;;5042903;28;20042;-76
2022/04/19 14:23:15;;;;;;;3.92;1.38;;;;;;;;;;5010170;28;20108;-76
2022/04/19 14:25:41;;;;;;;1.92;1.00;;;;;;;;;;5043077;28;20116;-76
2022/04/19 14:28:06;;;;;;;1.88;0.82;;;;;;;;;;5009957;28;20084;-76
2022/04/19 14:33:16;;;;;;;2.33;1.10;;;;;;;;;;5023772;28;20033;-76
2022/04/19 14:35:42;;;;;;;2.75;1.20;;;;;;;;;;5026327;28;20044;-76
2022/04/19 14:38:07;;;;;;;2.58;1.23;;;;;;;;;;5028356;28;20034;-76
2022/04/19 14:40:33;;;;;;;2.53;1.40;;;;;;;;;;5013411;28;20036;-76
2022/04/19 14:42:58;;;;;;;1.70;0.77;;;;;;;;;;4980741;28;20117;-76
2022/04/19 14:45:24;;;;;;;1.05;0.57;;;;;;;;;;4997059;28;20038;-76
2022/04/19 14:47:49;;;;;;;2.60;1.15;;;;;;;;;;4996977;28;20034;-77
2022/04/19 14:50:14;;;;;;;2.53;1.17;;;;;;;;;;5013345;28;20394;-76
2022/04/19 14:52:40;;;;;;;1.58;0.57;;;;;;;;;;4996913;28;20045;-76
2022/04/19 14:55:06;;;;;;;3.22;0.95;;;;;;;;;;4996929;28;20492;-76
2022/04/19 14:57:31;;;;;;;2.22;0.80;;;;;;;;;;5013116;28;20030;-76
2022/04/19 14:59:56;;;;;;;2.38;0.88;;;;;;;;;;4996569;28;20034;-76
2022/04/19 15:02:22;;;;;;;1.85;0.90;;;;;;;;;;4980468;28;20052;-76
2022/04/19 15:04:47;;;;;;;1.33;0.73;;;;;;;;;;5012755;28;20038;-76
2022/04/19 15:07:13;;;;;;;1.30;0.80;;;;;;;;;;5029594;28;20465;-77
2022/04/19 15:09:39;;;;;;;3.45;0.98;;;;;;;;;;5013250;28;20038;-77
2022/04/19 15:12:05;;;;;;;1.67;0.90;;;;;;;;;;4996915;28;20037;-77
2022/04/19 15:14:30;;;;;;;3.22;0.90;;;;;;;;;;5029642;28;20081;-76
2022/04/19 15:16:56;;;;;;;2.20;0.68;;;;;;;;;;5012449;28;20054;-76
2022/04/19 15:19:22;;;;;;;2.70;0.98;;;;;;;;;;5012680;28;20038;-76
2022/04/19 15:21:47;;;;;;;1.92;0.90;;;;;;;;;;4996368;28;20448;-76
2022/04/19 15:24:13;;;;;;;2.03;0.90;;;;;;;;;;5013959;28;20503;-76
2022/04/19 15:26:38;;;;;;;2.00;1.10;;;;;;;;;;5012483;28;20072;-76
2022/04/19 15:29:05;;;;;;;2.00;1.20;;;;;;;;;;5012407;28;20041;-76
2022/04/19 15:31:30;;;;;;;8.68;1.33;;;;;;;;;;5001717;28;20137;-76
2022/04/19 15:33:55;;;;;;;4.15;1.10;;;;;;;;;;4999001;28;20042;-76